Terminal Aerodrome Forecast
Issued by NWS

Home | Current Version | Previous Version | Text Only | Print | Product List | Glossary On
Versions: 1 2 3 4 5 6 7 8 9 10 11 12 13 14 15 16
000
FTUS41 KPBZ 312320
TAFDUJ
TAF
KDUJ 312320Z 0100/0124 00000KT P6SM VCSH OVC035
     FM010200 31003KT P6SM OVC025
     FM010400 31003KT 5SM BR OVC015
     FM010600 32003KT 2SM BR BKN006
     FM011000 35004KT 2SM BR SCT008
     FM011300 35006KT P6SM SCT015=

USA.gov is the U.S. government's official web portal to all federal, state and local government web resources and services.